createdAt,value
2023-01-27T00:01:17.449Z,6.12
2023-01-27T00:03:45.746Z,6.53
2023-01-27T00:06:13.772Z,8.41
2023-01-27T00:08:41.621Z,9.51
2023-01-27T00:11:27.880Z,8.48
2023-01-27T00:13:55.911Z,7.29
2023-01-27T00:16:23.814Z,6.56
2023-01-27T00:18:51.757Z,6.58
2023-01-27T00:21:37.919Z,8.36
2023-01-27T00:24:24.802Z,9.45
2023-01-27T00:26:52.724Z,8.20
2023-01-27T00:29:20.603Z,7.22
2023-01-27T00:32:07.172Z,6.51
2023-01-27T00:34:35.136Z,6.66
2023-01-27T00:37:03.034Z,8.52
2023-01-27T00:39:30.916Z,9.55
2023-01-27T00:41:58.797Z,8.56
2023-01-27T00:44:26.679Z,7.48
2023-01-27T00:46:54.642Z,6.71
2023-01-27T00:49:22.785Z,6.75
2023-01-27T00:51:51.085Z,8.53
2023-01-27T00:54:19.112Z,9.52
2023-01-27T00:56:47.045Z,8.46
2023-01-27T00:59:14.921Z,7.40
2023-01-27T01:01:42.877Z,6.64
2023-01-27T01:04:10.763Z,6.62
2023-01-27T01:06:38.724Z,8.37
2023-01-27T01:09:06.550Z,9.44
2023-01-27T01:11:34.452Z,8.43
2023-01-27T01:14:02.377Z,7.34
2023-01-27T01:16:30.319Z,6.57
2023-01-27T01:18:58.480Z,6.68
2023-01-27T01:21:26.491Z,8.50
2023-01-27T01:23:54.437Z,9.48
2023-01-27T01:26:22.352Z,8.39
2023-01-27T01:28:50.393Z,7.31
2023-01-27T01:31:20.601Z,6.56
2023-01-27T01:33:49.106Z,7.33
2023-01-27T01:36:20.333Z,9.09
2023-01-27T01:38:48.868Z,9.83
2023-01-27T01:41:19.811Z,8.59
2023-01-27T01:43:49.545Z,7.44
2023-01-27T01:46:18.718Z,6.77
2023-01-27T01:48:49.795Z,7.90
2023-01-27T01:51:25.807Z,9.65
2023-01-27T01:54:13.445Z,9.15
2023-01-27T01:56:53.696Z,7.75
2023-01-27T01:59:33.660Z,6.84
2023-01-27T02:02:06.092Z,6.93
2023-01-27T02:04:39.137Z,8.74
2023-01-27T02:07:18.674Z,9.80
2023-01-27T02:09:46.873Z,8.62
2023-01-27T02:12:14.857Z,7.49
2023-01-27T02:14:43.078Z,6.71
2023-01-27T02:17:13.613Z,7.35
2023-01-27T02:20:06.294Z,9.14
2023-01-27T02:22:47.084Z,9.56
2023-01-27T02:25:26.901Z,8.13
2023-01-27T02:27:54.752Z,7.09
2023-01-27T02:30:22.715Z,6.89
2023-01-27T02:32:50.596Z,8.55
2023-01-27T02:35:44.451Z,9.57
2023-01-27T02:38:13.856Z,8.29
2023-01-27T02:40:41.954Z,7.22
2023-01-27T02:43:09.878Z,6.49
2023-01-27T02:45:37.799Z,7.08
2023-01-27T02:48:06.245Z,9.00
2023-01-27T02:50:34.124Z,9.71
2023-01-27T02:53:01.997Z,8.50
2023-01-27T02:55:29.888Z,7.38
2023-01-27T02:57:57.750Z,6.60
2023-01-27T03:00:25.753Z,6.54
2023-01-27T03:02:53.771Z,8.32
2023-01-27T03:05:22.087Z,9.31
2023-01-27T03:07:49.987Z,8.21
2023-01-27T03:10:18.017Z,7.15
2023-01-27T03:12:45.941Z,6.39
2023-01-27T03:15:32.159Z,6.37
2023-01-27T03:18:13.921Z,8.38
2023-01-27T03:20:47.634Z,9.12
2023-01-27T03:23:18.515Z,7.88
2023-01-27T03:25:48.348Z,6.85
2023-01-27T03:28:16.458Z,6.15
2023-01-27T03:30:44.393Z,6.20
2023-01-27T03:33:12.390Z,8.03
2023-01-27T03:35:48.482Z,9.02
2023-01-27T03:38:35.571Z,7.87
2023-01-27T03:41:22.563Z,6.73
2023-01-27T03:44:08.854Z,5.97
2023-01-27T03:46:36.761Z,6.35
2023-01-27T03:49:04.638Z,8.27
2023-01-27T03:51:32.466Z,8.96
2023-01-27T03:54:01.039Z,7.80
2023-01-27T03:56:29.048Z,6.77
2023-01-27T03:58:57.880Z,6.08
2023-01-27T04:01:25.854Z,6.05
2023-01-27T04:04:12.723Z,7.87
2023-01-27T04:06:54.646Z,8.88
2023-01-27T04:09:28.883Z,7.64
2023-01-27T04:11:59.943Z,6.64
2023-01-27T04:14:39.002Z,5.98
2023-01-27T04:17:12.575Z,6.47
2023-01-27T04:19:41.150Z,8.50
2023-01-27T04:22:13.780Z,9.05
2023-01-27T04:24:42.101Z,7.83
2023-01-27T04:27:13.368Z,6.83
2023-01-27T04:29:42.639Z,6.12
2023-01-27T04:32:12.859Z,5.61
2023-01-27T04:34:41.526Z,6.54
2023-01-27T04:37:10.745Z,8.80
2023-01-27T04:39:38.783Z,9.46
2023-01-27T04:42:06.816Z,8.20
2023-01-27T04:44:34.824Z,7.08
2023-01-27T04:47:02.762Z,6.32
2023-01-27T04:49:30.952Z,6.16
2023-01-27T04:51:58.908Z,7.82
2023-01-27T04:54:26.878Z,8.89
2023-01-27T04:56:58.636Z,7.90
2023-01-27T04:59:26.785Z,6.84
2023-01-27T05:01:54.892Z,6.11
2023-01-27T05:04:22.987Z,6.07
2023-01-27T05:06:50.910Z,7.79
2023-01-27T05:09:19.160Z,8.86
2023-01-27T05:11:47.152Z,7.89
2023-01-27T05:14:15.253Z,6.84
2023-01-27T05:16:43.231Z,6.12
2023-01-27T05:19:11.185Z,6.07
2023-01-27T05:21:39.057Z,7.84
2023-01-27T05:24:07.126Z,8.86
2023-01-27T05:26:35.640Z,7.84
2023-01-27T05:29:03.488Z,6.81
2023-01-27T05:31:32.125Z,6.08
2023-01-27T05:34:02.041Z,5.76
2023-01-27T05:36:30.851Z,7.21
2023-01-27T05:39:00.353Z,8.97
2023-01-27T05:41:31.937Z,8.87
2023-01-27T05:44:00.143Z,7.60
2023-01-27T05:46:31.203Z,6.67
2023-01-27T05:49:02.178Z,6.01
2023-01-27T05:51:35.009Z,6.52
2023-01-27T05:54:05.835Z,8.40
2023-01-27T05:56:39.529Z,9.27
2023-01-27T05:59:07.901Z,8.08
2023-01-27T06:01:37.568Z,7.02
2023-01-27T06:04:06.121Z,6.28
2023-01-27T06:06:34.084Z,6.21
2023-01-27T06:09:02.354Z,7.94
2023-01-27T06:11:30.703Z,9.02
2023-01-27T06:13:58.795Z,8.01
2023-01-27T06:16:26.866Z,6.93
2023-01-27T06:18:54.755Z,6.17
2023-01-27T06:21:22.736Z,6.26
2023-01-27T06:23:50.766Z,7.98
2023-01-27T06:26:20.985Z,8.96
2023-01-27T06:28:48.942Z,7.92
2023-01-27T06:31:21.662Z,6.85
2023-01-27T06:33:51.314Z,6.13
2023-01-27T06:36:21.119Z,7.11
2023-01-27T06:38:49.741Z,8.93
2023-01-27T06:41:18.321Z,8.88
2023-01-27T06:43:46.211Z,7.61
2023-01-27T06:46:15.123Z,6.66
2023-01-27T06:48:43.157Z,6.51
2023-01-27T06:51:11.340Z,8.13
2023-01-27T06:53:39.292Z,9.15
2023-01-27T06:56:07.848Z,8.09
2023-01-27T06:58:35.886Z,7.01
2023-01-27T07:01:07.581Z,6.25
2023-01-27T07:03:35.852Z,6.85
2023-01-27T07:06:04.707Z,8.71
2023-01-27T07:08:33.075Z,9.51
2023-01-27T07:11:04.469Z,8.33
2023-01-27T07:13:32.414Z,7.18
2023-01-27T07:16:00.504Z,6.46
2023-01-27T07:18:28.479Z,7.27
2023-01-27T07:20:56.546Z,9.10
2023-01-27T07:23:24.491Z,9.65
2023-01-27T07:25:52.655Z,8.39
2023-01-27T07:28:20.502Z,7.30
2023-01-27T07:30:48.487Z,6.63
2023-01-27T07:33:16.409Z,7.62
2023-01-27T07:35:44.270Z,9.36
2023-01-27T07:38:12.107Z,9.33
2023-01-27T07:40:40.095Z,8.06
2023-01-27T07:43:08.011Z,7.11
2023-01-27T07:45:36.140Z,6.95
2023-01-27T07:48:07.154Z,8.67
2023-01-27T07:50:36.394Z,9.72
2023-01-27T07:53:05.597Z,8.65
2023-01-27T07:55:34.285Z,7.52
2023-01-27T07:58:04.882Z,6.82
2023-01-27T08:00:32.921Z,7.88
2023-01-27T08:03:02.027Z,9.56
2023-01-27T08:05:33.676Z,9.16
2023-01-27T08:08:04.324Z,7.89
2023-01-27T08:10:32.331Z,6.97
2023-01-27T08:13:00.303Z,6.79
2023-01-27T08:15:28.419Z,8.47
2023-01-27T08:17:58.167Z,9.42
2023-01-27T08:20:27.857Z,8.35
2023-01-27T08:22:56.345Z,7.33
2023-01-27T08:25:24.954Z,6.61
2023-01-27T08:27:55.237Z,6.62
2023-01-27T08:30:24.138Z,8.51
2023-01-27T08:32:52.153Z,9.58
2023-01-27T08:35:20.082Z,8.60
2023-01-27T08:37:48.960Z,7.53
2023-01-27T08:40:18.147Z,6.83
2023-01-27T08:42:46.123Z,6.63
2023-01-27T08:45:14.020Z,8.28
2023-01-27T08:47:42.149Z,9.47
2023-01-27T08:50:11.024Z,8.51
2023-01-27T08:52:40.079Z,7.51
2023-01-27T08:55:08.258Z,6.79
2023-01-27T08:57:37.136Z,6.74
2023-01-27T09:00:07.855Z,8.55
2023-01-27T09:02:36.050Z,9.65
2023-01-27T09:05:04.992Z,8.60
2023-01-27T09:07:33.283Z,7.55
2023-01-27T09:10:13.632Z,6.80
2023-01-27T09:12:44.329Z,6.77
2023-01-27T09:15:15.105Z,8.63
2023-01-27T09:17:43.101Z,9.67
2023-01-27T09:20:12.514Z,8.64
2023-01-27T09:22:41.574Z,7.53
2023-01-27T09:25:14.805Z,6.75
2023-01-27T09:27:45.183Z,6.72
2023-01-27T09:30:16.214Z,8.57
2023-01-27T09:32:44.498Z,9.59
2023-01-27T09:35:13.315Z,8.51
2023-01-27T09:37:51.304Z,7.41
2023-01-27T09:40:33.971Z,6.62
2023-01-27T09:43:23.060Z,7.09
2023-01-27T09:46:46.947Z,9.21
2023-01-27T09:49:54.802Z,9.49
2023-01-27T09:52:47.775Z,7.88
2023-01-27T09:55:25.293Z,6.91
2023-01-27T09:58:24.711Z,6.52
2023-01-27T10:01:19.982Z,8.45
2023-01-27T10:04:12.178Z,9.02
2023-01-27T10:06:48.802Z,7.69
2023-01-27T10:10:18.206Z,6.79
2023-01-27T10:13:31.505Z,6.00
2023-01-27T10:16:34.494Z,7.46
2023-01-27T10:19:19.534Z,8.69
2023-01-27T10:22:02.296Z,7.49
2023-01-27T10:25:00.726Z,6.52
2023-01-27T10:27:36.695Z,5.82
2023-01-27T10:30:38.434Z,5.81
2023-01-27T10:33:15.335Z,8.02
2023-01-27T10:35:58.457Z,8.17
2023-01-27T10:38:44.512Z,6.99
2023-01-27T10:41:27.412Z,6.12
2023-01-27T10:44:22.895Z,6.02
2023-01-27T10:47:41.125Z,8.11
2023-01-27T10:50:31.254Z,8.12
2023-01-27T10:53:10.171Z,6.89
2023-01-27T10:55:59.527Z,6.13
2023-01-27T10:58:52.170Z,5.55
2023-01-27T11:01:30.646Z,6.03
2023-01-27T11:04:31.170Z,8.06
2023-01-27T11:07:04.421Z,8.01
2023-01-27T11:09:43.224Z,6.88
2023-01-27T11:12:13.876Z,6.08
2023-01-27T11:15:01.919Z,5.55
2023-01-27T11:17:45.617Z,5.14
2023-01-27T11:20:35.278Z,6.43
2023-01-27T11:23:17.790Z,8.41
2023-01-27T11:26:08.445Z,7.70
2023-01-27T11:28:45.329Z,6.56
2023-01-27T11:31:37.742Z,5.83
2023-01-27T11:34:31.603Z,5.54
2023-01-27T11:37:01.171Z,7.58
2023-01-27T11:39:32.158Z,8.52
2023-01-27T11:42:00.146Z,7.49
2023-01-27T11:44:32.727Z,6.57
2023-01-27T11:47:02.911Z,5.92
2023-01-27T11:49:35.183Z,5.91
2023-01-27T11:52:13.127Z,7.77
2023-01-27T11:55:16.093Z,8.40
2023-01-27T11:57:54.101Z,7.12
2023-01-27T12:00:32.325Z,6.31
2023-01-27T12:03:27.417Z,5.74
2023-01-27T12:05:59.711Z,5.32
2023-01-27T12:08:56.830Z,6.44
2023-01-27T12:11:33.871Z,8.64
2023-01-27T12:14:05.025Z,8.22
2023-01-27T12:16:49.996Z,7.11
2023-01-27T12:19:32.897Z,6.26
2023-01-27T12:22:07.140Z,5.70
2023-01-27T12:25:00.130Z,5.69
2023-01-27T12:27:40.186Z,7.88
2023-01-27T12:30:20.233Z,8.37
2023-01-27T12:32:48.908Z,7.21
2023-01-27T12:35:48.437Z,6.41
2023-01-27T12:38:31.714Z,5.77
2023-01-27T12:41:07.845Z,5.33
2023-01-27T12:44:16.004Z,5.97
2023-01-27T12:47:21.108Z,8.47
2023-01-27T12:49:49.090Z,8.26
2023-01-27T12:52:22.055Z,7.15
2023-01-27T12:54:53.203Z,6.36
2023-01-27T12:57:22.611Z,5.81
2023-01-27T12:59:54.991Z,5.44
2023-01-27T13:02:25.877Z,6.50
2023-01-27T13:05:03.637Z,8.43
2023-01-27T13:07:53.069Z,8.36
2023-01-27T13:10:25.949Z,7.15
2023-01-27T13:12:59.426Z,6.38
2023-01-27T13:15:31.220Z,5.82
2023-01-27T13:18:12.689Z,5.40
2023-01-27T13:20:47.480Z,6.15
2023-01-27T13:23:35.180Z,8.04
2023-01-27T13:26:09.556Z,7.69
2023-01-27T13:28:52.775Z,6.69
2023-01-27T13:31:50.753Z,5.94
2023-01-27T13:34:41.984Z,5.41
2023-01-27T13:37:38.827Z,6.70
2023-01-27T13:40:37.882Z,8.08
2023-01-27T13:43:23.634Z,6.91
2023-01-27T13:46:21.843Z,6.00
2023-01-27T13:49:03.645Z,5.39
2023-01-27T13:51:33.759Z,5.76
2023-01-27T13:54:08.222Z,7.82
2023-01-27T13:57:04.233Z,8.55
2023-01-27T14:00:16.443Z,7.24
2023-01-27T14:03:12.175Z,6.21
2023-01-27T14:06:17.452Z,5.60
2023-01-27T14:09:13.941Z,6.22
2023-01-27T14:12:07.710Z,8.54
2023-01-27T14:14:58.762Z,8.22
2023-01-27T14:17:34.695Z,6.99
2023-01-27T14:21:01.265Z,6.25
2023-01-27T14:24:24.218Z,5.61
2023-01-27T14:27:05.542Z,6.52
2023-01-27T14:29:59.690Z,8.64
2023-01-27T14:32:45.408Z,8.46
2023-01-27T14:35:59.237Z,7.25
2023-01-27T14:38:39.667Z,6.31
2023-01-27T14:41:45.703Z,5.77
2023-01-27T14:44:43.555Z,6.33
2023-01-27T14:47:34.090Z,8.56
2023-01-27T14:50:16.665Z,7.94
2023-01-27T14:53:45.982Z,6.87
2023-01-27T14:56:44.565Z,5.98
2023-01-27T14:59:42.768Z,6.12
2023-01-27T15:02:41.145Z,8.40
2023-01-27T15:05:14.601Z,8.80
2023-01-27T15:07:54.383Z,7.53
2023-01-27T15:10:31.806Z,6.62
2023-01-27T15:13:50.658Z,6.04
2023-01-27T15:16:46.294Z,7.60
2023-01-27T15:19:51.900Z,9.31
2023-01-27T15:23:07.692Z,8.08
2023-01-27T15:25:53.170Z,6.78
2023-01-27T15:28:28.899Z,6.67
2023-01-27T15:31:22.325Z,8.56
2023-01-27T15:33:52.208Z,9.36
2023-01-27T15:36:32.033Z,8.17
2023-01-27T15:39:09.027Z,7.09
2023-01-27T15:41:38.910Z,6.39
2023-01-27T15:44:17.046Z,6.79
2023-01-27T15:46:56.132Z,8.83
2023-01-27T15:49:38.188Z,8.88
2023-01-27T15:52:29.925Z,7.64
2023-01-27T15:55:01.181Z,6.67
2023-01-27T15:57:35.623Z,6.62
2023-01-27T16:00:04.104Z,8.47
2023-01-27T16:02:33.175Z,9.50
2023-01-27T16:05:29.964Z,8.44
2023-01-27T16:08:03.167Z,7.23
2023-01-27T16:10:34.677Z,6.90
2023-01-27T16:13:27.390Z,8.54
2023-01-27T16:16:19.989Z,9.31
2023-01-27T16:19:10.885Z,7.96
2023-01-27T16:21:54.948Z,6.95
2023-01-27T16:24:30.164Z,6.97
2023-01-27T16:27:23.731Z,8.90
2023-01-27T16:29:59.538Z,9.67
2023-01-27T16:32:37.647Z,8.38
2023-01-27T16:35:19.550Z,7.32
2023-01-27T16:38:22.824Z,7.14
2023-01-27T16:41:19.480Z,9.29
2023-01-27T16:44:15.756Z,9.88
2023-01-27T16:46:51.020Z,8.44
2023-01-27T16:49:25.942Z,7.41
2023-01-27T16:52:00.249Z,6.98
2023-01-27T16:54:38.677Z,8.48
2023-01-27T16:57:10.306Z,9.45
2023-01-27T16:59:42.405Z,8.40
2023-01-27T17:02:19.270Z,7.40
2023-01-27T17:04:59.925Z,6.74
2023-01-27T17:07:28.066Z,8.00
2023-01-27T17:10:08.959Z,9.63
2023-01-27T17:12:47.666Z,9.15
2023-01-27T17:15:30.586Z,7.82
2023-01-27T17:17:58.682Z,6.92
2023-01-27T17:20:32.170Z,7.08
2023-01-27T17:23:00.903Z,8.90
2023-01-27T17:25:34.935Z,9.66
2023-01-27T17:28:07.600Z,8.46
2023-01-27T17:30:39.851Z,7.42
2023-01-27T17:33:17.288Z,6.78
2023-01-27T17:35:54.274Z,8.03
2023-01-27T17:38:27.968Z,9.59
2023-01-27T17:40:55.945Z,8.85
2023-01-27T17:43:29.260Z,7.70
2023-01-27T17:46:17.927Z,6.87
2023-01-27T17:48:55.800Z,7.48
2023-01-27T17:51:42.691Z,9.41
2023-01-27T17:54:32.713Z,9.32
2023-01-27T17:57:32.399Z,7.89
2023-01-27T18:00:10.733Z,6.86
2023-01-27T18:03:04.588Z,7.81
2023-01-27T18:05:33.905Z,9.74
2023-01-27T18:08:04.843Z,9.18
2023-01-27T18:10:40.913Z,7.96
2023-01-27T18:13:21.635Z,7.03
2023-01-27T18:16:01.629Z,7.07
2023-01-27T18:18:35.658Z,9.01
2023-01-27T18:21:22.509Z,9.84
2023-01-27T18:24:01.708Z,8.47
2023-01-27T18:26:40.886Z,7.30
2023-01-27T18:29:38.999Z,6.56
2023-01-27T18:32:12.893Z,7.77
2023-01-27T18:34:51.991Z,9.43
2023-01-27T18:37:34.545Z,8.72
2023-01-27T18:40:27.792Z,7.47
2023-01-27T18:42:58.323Z,6.54
2023-01-27T18:45:27.554Z,6.47
2023-01-27T18:47:56.692Z,8.25
2023-01-27T18:50:26.970Z,9.27
2023-01-27T18:52:55.343Z,8.18
2023-01-27T18:55:30.573Z,7.10
2023-01-27T18:58:00.510Z,6.33
2023-01-27T19:00:35.060Z,6.34
2023-01-27T19:03:04.986Z,8.14
2023-01-27T19:05:35.753Z,9.12
2023-01-27T19:08:04.939Z,8.01
2023-01-27T19:10:34.620Z,6.93
2023-01-27T19:13:04.258Z,6.14
2023-01-27T19:15:41.944Z,5.54
2023-01-27T19:18:34.104Z,5.72
2023-01-27T19:21:02.621Z,7.67
2023-01-27T19:23:32.574Z,7.29
2023-01-27T19:26:03.415Z,6.26
2023-01-27T19:28:35.741Z,5.51
2023-01-27T19:31:06.121Z,5.00
2023-01-27T19:33:37.238Z,6.07
2023-01-27T19:36:08.593Z,7.44
2023-01-27T19:38:37.016Z,6.62
2023-01-27T19:41:05.335Z,5.68
2023-01-27T19:43:33.264Z,5.01
2023-01-27T19:46:01.399Z,4.79
2023-01-27T19:48:29.461Z,6.33
2023-01-27T19:50:57.513Z,7.33
2023-01-27T19:53:26.093Z,6.43
2023-01-27T19:55:58.290Z,5.51
2023-01-27T19:58:28.776Z,4.85
2023-01-27T20:00:57.301Z,4.95
2023-01-27T20:03:26.091Z,6.83
2023-01-27T20:05:54.709Z,7.15
2023-01-27T20:08:23.475Z,6.08
2023-01-27T20:10:54.224Z,5.21
2023-01-27T20:13:24.199Z,4.62
2023-01-27T20:15:52.733Z,5.41
2023-01-27T20:18:23.861Z,6.74
2023-01-27T20:20:52.627Z,6.04
2023-01-27T20:23:21.268Z,5.17
2023-01-27T20:25:50.126Z,4.53
2023-01-27T20:28:19.197Z,4.52
2023-01-27T20:30:48.386Z,6.52
2023-01-27T20:33:16.944Z,7.37
2023-01-27T20:35:45.777Z,6.28
2023-01-27T20:38:14.920Z,5.31
2023-01-27T20:40:44.148Z,4.64
2023-01-27T20:43:15.722Z,4.14
2023-01-27T20:45:45.791Z,4.46
2023-01-27T20:48:14.051Z,6.45
2023-01-27T20:50:42.303Z,6.99
2023-01-27T20:53:10.310Z,5.95
2023-01-27T20:55:38.621Z,5.06
2023-01-27T20:58:06.665Z,4.42
2023-01-27T21:00:34.840Z,3.94
2023-01-27T21:03:04.290Z,3.98
2023-01-27T21:05:32.453Z,5.81
2023-01-27T21:08:00.678Z,6.15
2023-01-27T21:10:29.489Z,5.19
2023-01-27T21:12:58.005Z,4.39
2023-01-27T21:15:26.215Z,3.86
2023-01-27T21:17:54.905Z,3.65
2023-01-27T21:20:22.957Z,5.17
2023-01-27T21:22:51.067Z,5.96
2023-01-27T21:25:19.249Z,5.06
2023-01-27T21:27:48.199Z,4.25
2023-01-27T21:30:16.630Z,3.70
2023-01-27T21:32:44.559Z,3.29
2023-01-27T21:35:12.941Z,3.74
2023-01-27T21:37:42.715Z,5.62
2023-01-27T21:40:11.949Z,5.45
2023-01-27T21:42:58.471Z,4.48
2023-01-27T21:45:26.453Z,3.72
2023-01-27T21:47:54.463Z,3.25
2023-01-27T21:50:22.491Z,3.57
2023-01-27T21:52:51.179Z,5.45
2023-01-27T21:55:22.808Z,5.65
2023-01-27T21:57:53.304Z,4.68
2023-01-27T22:00:24.681Z,3.93
2023-01-27T22:02:57.845Z,3.43
2023-01-27T22:05:27.789Z,3.03
2023-01-27T22:07:55.969Z,3.44
2023-01-27T22:10:27.555Z,5.53
2023-01-27T22:13:03.632Z,6.38
2023-01-27T22:15:32.319Z,5.25
2023-01-27T22:18:00.619Z,4.32
2023-01-27T22:20:29.096Z,3.74
2023-01-27T22:22:57.083Z,3.31
2023-01-27T22:25:27.291Z,2.98
2023-01-27T22:27:55.967Z,3.21
2023-01-27T22:30:24.377Z,5.16
2023-01-27T22:33:01.772Z,6.31
2023-01-27T22:35:29.701Z,5.25
2023-01-27T22:37:57.657Z,4.34
2023-01-27T22:40:25.546Z,3.73
2023-01-27T22:42:53.792Z,3.30
2023-01-27T22:45:22.281Z,2.96
2023-01-27T22:47:50.469Z,3.60
2023-01-27T22:50:19.611Z,5.56
2023-01-27T22:52:47.879Z,5.67
2023-01-27T22:55:16.011Z,4.69
2023-01-27T22:57:45.259Z,3.94
2023-01-27T23:00:13.635Z,3.43
2023-01-27T23:02:41.599Z,3.05
2023-01-27T23:05:10.055Z,2.75
2023-01-27T23:07:37.916Z,2.86
2023-01-27T23:10:06.708Z,4.75
2023-01-27T23:12:34.577Z,6.07
2023-01-27T23:15:02.547Z,5.13
2023-01-27T23:17:30.490Z,4.22
2023-01-27T23:19:58.620Z,3.61
2023-01-27T23:22:26.550Z,3.20
2023-01-27T23:24:54.602Z,2.87
2023-01-27T23:27:22.480Z,3.01
2023-01-27T23:29:50.370Z,4.98
2023-01-27T23:32:18.273Z,6.19
2023-01-27T23:34:46.193Z,5.25
2023-01-27T23:37:14.144Z,4.32
2023-01-27T23:39:45.844Z,3.70
2023-01-27T23:42:14.792Z,3.25
2023-01-27T23:44:42.690Z,2.91
2023-01-27T23:47:11.924Z,2.64
2023-01-27T23:49:39.940Z,2.61
2023-01-27T23:52:07.957Z,4.35
2023-01-27T23:54:36.079Z,5.77
2023-01-27T23:57:04.105Z,4.98
2023-01-27T23:59:31.972Z,4.06
